Terminal Aerodrome Forecast
Issued by NWS

Home | Current Version | Previous Version | Text Only | Print | Product List | Glossary On
Versions: 1 2 3 4 5 6 7 8 9 10 11 12 13 14 15 16 17
000
FTUS42 KFFC 261953 AAA
TAFRYY
TAF AMD
KRYY 261953Z 2620/2718 11007KT 6SM -SHRA FEW012 SCT025 OVC045
      TEMPO 2622/2701 3SM -TSRA SCT008 BKN025CB
     FM270100 21005KT 6SM -SHRA SCT020 OVC040
     FM270400 26004KT P6SM VCSH BKN025
     FM270800 29005KT 4SM BR OVC008
     FM271200 31007KT P6SM FEW008 OVC015
     FM271500 32010KT P6SM SCT012 SCT035=

USA.gov is the U.S. government's official web portal to all federal, state and local government web resources and services.